createdAt,value
2018-02-19T00:00:28.715Z,-2.70
2018-02-19T00:05:12.112Z,-2.70
2018-02-19T00:09:55.475Z,-2.50
2018-02-19T00:14:38.821Z,-2.60
2018-02-19T00:19:22.505Z,-2.60
2018-02-19T00:24:05.844Z,-2.50
2018-02-19T00:28:49.215Z,-2.40
2018-02-19T00:33:33.974Z,-2.40
2018-02-19T00:38:17.619Z,-2.40
2018-02-19T00:43:01.057Z,-2.30
2018-02-19T00:47:44.573Z,-2.40
2018-02-19T00:52:27.948Z,-2.40
2018-02-19T00:57:11.448Z,-2.40
2018-02-19T01:01:55.648Z,-2.70
2018-02-19T01:06:39.099Z,-2.60
2018-02-19T01:11:22.730Z,-2.70
2018-02-19T01:16:06.181Z,-2.70
2018-02-19T01:20:52.648Z,-2.90
2018-02-19T01:25:36.038Z,-2.80
2018-02-19T01:30:19.468Z,-2.80
2018-02-19T01:35:02.909Z,-2.70
2018-02-19T01:39:46.410Z,-2.80
2018-02-19T01:44:30.860Z,-3.00
2018-02-19T01:49:14.250Z,-3.00
2018-02-19T01:53:57.612Z,-3.20
2018-02-19T01:58:41.103Z,-3.40
2018-02-19T02:03:24.485Z,-3.50
2018-02-19T02:08:07.933Z,-3.60
2018-02-19T02:12:51.234Z,-3.60
2018-02-19T02:17:35.343Z,-3.60
2018-02-19T02:22:18.767Z,-3.60
2018-02-19T02:27:02.094Z,-3.70
2018-02-19T02:31:45.410Z,-3.70
2018-02-19T02:36:29.540Z,-3.70
2018-02-19T02:41:13.218Z,-3.70
2018-02-19T02:45:57.315Z,-3.50
2018-02-19T02:50:40.719Z,-3.60
2018-02-19T02:55:24.047Z,-3.60
2018-02-19T03:00:08.153Z,-3.20
2018-02-19T03:04:51.478Z,-3.30
2018-02-19T03:09:35.538Z,-3.10
2018-02-19T03:14:18.987Z,-3.00
2018-02-19T03:19:03.077Z,-3.10
2018-02-19T03:23:46.450Z,-3.10
2018-02-19T03:28:29.832Z,-3.40
2018-02-19T03:33:13.176Z,-3.50
2018-02-19T03:37:56.515Z,-3.60
2018-02-19T03:42:39.923Z,-3.60
2018-02-19T03:47:24.049Z,-3.80
2018-02-19T03:52:09.966Z,-3.80
2018-02-19T03:56:53.587Z,-3.80
2018-02-19T04:01:37.232Z,-3.80
2018-02-19T04:06:22.066Z,-3.80
2018-02-19T04:11:06.891Z,-3.80
2018-02-19T04:15:50.769Z,-3.80
2018-02-19T04:20:35.905Z,-3.90
2018-02-19T04:25:20.638Z,-4.00
2018-02-19T04:30:05.385Z,-4.00
2018-02-19T04:34:50.108Z,-4.00
2018-02-19T04:39:34.889Z,-3.90
2018-02-19T04:44:33.158Z,-3.90
2018-02-19T04:49:17.306Z,-3.90
2018-02-19T04:54:01.446Z,-4.00
2018-02-19T04:58:44.754Z,-4.00
2018-02-19T05:03:28.099Z,-4.10
2018-02-19T05:08:11.467Z,-4.20
2018-02-19T05:12:55.319Z,-4.60
2018-02-19T05:17:41.975Z,-4.80
2018-02-19T05:22:25.343Z,-4.90
2018-02-19T05:27:10.634Z,-5.20
2018-02-19T05:31:54.036Z,-5.50
2018-02-19T05:36:37.435Z,-5.70
2018-02-19T05:41:20.787Z,-5.50
2018-02-19T05:46:04.936Z,-5.00
2018-02-19T05:50:49.308Z,-5.10
2018-02-19T05:55:32.655Z,-5.10
2018-02-19T06:00:18.416Z,-4.90
2018-02-19T06:05:01.735Z,-4.70
2018-02-19T06:14:56.328Z,-4.30
2018-02-19T06:25:02.421Z,-4.20
2018-02-19T06:29:46.620Z,-4.10
2018-02-19T06:39:32.548Z,-4.10
2018-02-19T06:44:15.935Z,-4.00
2018-02-19T06:48:59.284Z,-4.00
2018-02-19T06:53:42.636Z,-3.90
2018-02-19T06:58:26.771Z,-3.50
2018-02-19T07:03:10.479Z,-3.50
2018-02-19T07:07:53.856Z,-3.30
2018-02-19T07:12:37.280Z,-3.20
2018-02-19T07:17:21.410Z,-2.90
2018-02-19T07:22:04.784Z,-2.90
2018-02-19T07:27:05.730Z,-2.70
2018-02-19T07:31:50.045Z,-2.70
2018-02-19T07:36:33.660Z,-2.60
2018-02-19T07:41:18.460Z,-2.50
2018-02-19T07:46:02.327Z,-2.40
2018-02-19T08:00:53.431Z,-1.80
2018-02-19T08:05:37.145Z,-1.60
2018-02-19T08:10:21.399Z,-0.80
2018-02-19T08:15:11.357Z,-0.90
2018-02-19T08:19:54.877Z,-0.40
2018-02-19T08:24:39.745Z,0.30
2018-02-19T08:29:23.121Z,0.30
2018-02-19T08:34:10.284Z,0.70
2018-02-19T08:39:00.966Z,1.10
2018-02-19T08:43:45.645Z,1.20
2018-02-19T08:53:30.058Z,1.40
2018-02-19T08:58:20.237Z,1.80
2018-02-19T09:07:58.136Z,2.20
2018-02-19T09:12:42.406Z,3.20
2018-02-19T09:17:26.559Z,3.40
2018-02-19T09:22:09.949Z,3.30
2018-02-19T09:26:53.341Z,3.40
2018-02-19T09:31:37.464Z,3.80
2018-02-19T09:47:31.693Z,4.50
2018-02-19T09:52:26.456Z,4.80
2018-02-19T09:57:17.428Z,5.50
2018-02-19T10:02:07.803Z,5.90
2018-02-19T10:06:51.980Z,6.00
2018-02-19T10:11:35.740Z,6.00
2018-02-19T10:16:24.920Z,6.10
2018-02-19T10:21:34.531Z,6.00
2018-02-19T10:26:24.021Z,6.10
2018-02-19T10:31:41.563Z,6.00
2018-02-19T10:36:26.312Z,6.00
2018-02-19T10:41:14.549Z,6.10
2018-02-19T10:45:58.914Z,5.70
2018-02-19T10:50:42.258Z,5.70
2018-02-19T10:55:26.917Z,6.00
2018-02-19T11:00:10.447Z,6.00
2018-02-19T11:05:00.584Z,6.10
2018-02-19T11:09:44.004Z,6.10
2018-02-19T11:14:27.399Z,6.20
2018-02-19T11:19:11.625Z,6.30
2018-02-19T11:23:55.113Z,6.30
2018-02-19T11:28:38.479Z,6.50
2018-02-19T11:33:22.648Z,6.40
2018-02-19T11:38:06.001Z,6.40
2018-02-19T11:42:49.390Z,6.30
2018-02-19T11:47:32.832Z,6.20
2018-02-19T11:52:16.977Z,6.60
2018-02-19T11:57:00.502Z,6.50
2018-02-19T12:01:48.839Z,6.90
2018-02-19T12:06:32.310Z,7.30
2018-02-19T12:11:16.078Z,7.40
2018-02-19T12:15:59.398Z,7.30
2018-02-19T12:20:42.848Z,7.30
2018-02-19T12:25:27.111Z,6.90
2018-02-19T12:30:11.279Z,6.50
2018-02-19T12:34:54.648Z,6.50
2018-02-19T12:39:37.994Z,6.50
2018-02-19T12:44:21.345Z,6.40
2018-02-19T12:49:04.651Z,6.30
2018-02-19T12:53:48.054Z,6.50
2018-02-19T12:58:31.523Z,6.50
2018-02-19T13:03:15.639Z,6.60
2018-02-19T13:07:59.278Z,6.60
2018-02-19T13:12:43.454Z,6.50
2018-02-19T13:17:26.783Z,6.40
2018-02-19T13:22:10.175Z,6.60
2018-02-19T13:26:53.567Z,6.60
2018-02-19T13:31:37.062Z,6.40
2018-02-19T13:36:21.286Z,6.50
2018-02-19T13:41:04.591Z,6.50
2018-02-19T13:45:48.001Z,6.40
2018-02-19T13:50:32.202Z,6.70
2018-02-19T13:55:15.594Z,6.60
2018-02-19T13:59:58.938Z,6.40
2018-02-19T14:04:43.040Z,5.80
2018-02-19T14:09:28.739Z,5.80
2018-02-19T14:14:12.191Z,5.60
2018-02-19T14:18:58.072Z,5.30
2018-02-19T14:23:41.543Z,5.30
2018-02-19T14:28:25.017Z,5.20
2018-02-19T14:33:09.499Z,5.00
2018-02-19T14:37:52.845Z,5.00
2018-02-19T14:42:36.247Z,4.80
2018-02-19T14:47:19.778Z,4.60
2018-02-19T14:52:03.213Z,4.50
2018-02-19T14:56:46.558Z,4.30
2018-02-19T15:01:29.899Z,4.20
2018-02-19T15:06:13.328Z,4.20
2018-02-19T15:10:59.479Z,3.90
2018-02-19T15:15:42.877Z,3.70
2018-02-19T15:20:26.190Z,3.50
2018-02-19T15:25:10.333Z,3.00
2018-02-19T15:29:54.054Z,3.00
2018-02-19T15:34:40.435Z,2.80
2018-02-19T15:44:58.565Z,2.40
2018-02-19T15:49:42.987Z,2.10
2018-02-19T15:54:26.461Z,2.10
2018-02-19T15:59:09.919Z,1.90
2018-02-19T16:03:53.341Z,1.50
2018-02-19T16:08:36.922Z,1.20
2018-02-19T16:13:21.197Z,0.90
2018-02-19T16:18:04.536Z,0.80
2018-02-19T16:22:48.877Z,0.20
2018-02-19T16:27:32.324Z,0.20
2018-02-19T16:32:16.653Z,0.00
2018-02-19T16:37:00.944Z,-0.50
2018-02-19T16:41:45.785Z,-0.70
2018-02-19T16:46:33.308Z,-0.70
2018-02-19T16:51:19.183Z,-0.80
2018-02-19T16:56:02.568Z,-0.90
2018-02-19T17:00:46.112Z,-1.00
2018-02-19T17:05:30.031Z,-0.90
2018-02-19T17:10:13.843Z,-0.90
2018-02-19T17:15:00.364Z,-1.00
2018-02-19T17:19:44.104Z,-1.10
2018-02-19T17:24:29.282Z,-1.10
2018-02-19T17:29:13.083Z,-1.20
2018-02-19T17:33:56.568Z,-1.30
2018-02-19T17:38:40.112Z,-1.40
2018-02-19T17:43:24.203Z,-1.40
2018-02-19T17:48:10.096Z,-1.40
2018-02-19T17:52:59.331Z,-1.30
2018-02-19T17:57:44.116Z,-1.40
2018-02-19T18:02:30.140Z,-1.40
2018-02-19T18:07:13.916Z,-1.40
2018-02-19T18:17:11.844Z,-1.20
2018-02-19T18:21:55.244Z,-1.30
2018-02-19T18:26:38.846Z,-1.20
2018-02-19T18:31:22.487Z,-1.40
2018-02-19T18:36:06.563Z,-1.70
2018-02-19T18:40:50.998Z,-2.10
2018-02-19T18:45:34.426Z,-2.30
2018-02-19T18:50:18.601Z,-1.70
2018-02-19T18:55:02.984Z,-1.60
2018-02-19T18:59:46.621Z,-1.60
2018-02-19T19:04:30.324Z,-1.70
2018-02-19T19:09:25.557Z,-1.80
2018-02-19T19:14:08.987Z,-1.70
2018-02-19T19:18:52.614Z,-1.60
2018-02-19T19:23:37.198Z,-1.50
2018-02-19T19:28:20.803Z,-1.30
2018-02-19T19:33:04.247Z,-1.30
2018-02-19T19:37:47.783Z,-1.20
2018-02-19T19:42:31.279Z,-1.10
2018-02-19T19:47:15.659Z,-1.10
2018-02-19T19:51:59.835Z,-1.20
2018-02-19T19:56:43.517Z,-1.20
2018-02-19T20:01:27.886Z,-1.30
2018-02-19T20:06:11.334Z,-1.30
2018-02-19T20:10:54.806Z,-1.30
2018-02-19T20:15:39.007Z,-1.10
2018-02-19T20:20:22.431Z,-1.10
2018-02-19T20:25:06.205Z,-1.10
2018-02-19T20:29:50.055Z,-1.20
2018-02-19T20:34:33.426Z,-1.20
2018-02-19T20:39:16.776Z,-1.20
2018-02-19T20:44:01.110Z,-1.30
2018-02-19T20:48:44.964Z,-1.30
2018-02-19T20:53:28.389Z,-1.40
2018-02-19T20:58:11.736Z,-1.60
2018-02-19T21:02:55.043Z,-1.90
2018-02-19T21:07:39.163Z,-2.30
2018-02-19T21:12:22.558Z,-2.30
2018-02-19T21:17:06.668Z,-2.50
2018-02-19T21:21:50.019Z,-2.50
2018-02-19T21:26:33.493Z,-2.60
2018-02-19T21:31:17.721Z,-2.80
2018-02-19T21:36:01.147Z,-2.80
2018-02-19T21:40:44.551Z,-2.90
2018-02-19T21:45:28.679Z,-3.10
2018-02-19T21:50:12.014Z,-3.10
2018-02-19T21:54:55.377Z,-3.20
2018-02-19T21:59:39.513Z,-3.20
2018-02-19T22:04:22.869Z,-3.20
2018-02-19T22:09:06.234Z,-3.00
2018-02-19T22:13:49.567Z,-2.90
2018-02-19T22:18:32.976Z,-2.80
2018-02-19T22:23:16.364Z,-2.90
2018-02-19T22:27:59.802Z,-3.10
2018-02-19T22:32:43.155Z,-3.30
2018-02-19T22:37:26.508Z,-3.40
2018-02-19T22:42:09.904Z,-3.40
2018-02-19T22:46:54.018Z,-3.40
2018-02-19T22:51:37.354Z,-3.50
2018-02-19T22:56:20.712Z,-3.40
2018-02-19T23:01:04.069Z,-3.40
2018-02-19T23:05:47.438Z,-3.20
2018-02-19T23:10:31.631Z,-3.20
2018-02-19T23:15:14.982Z,-3.10
2018-02-19T23:19:58.543Z,-3.20
2018-02-19T23:24:42.578Z,-3.10
2018-02-19T23:29:25.941Z,-3.10
2018-02-19T23:34:10.111Z,-3.30
2018-02-19T23:38:53.435Z,-3.30
2018-02-19T23:43:36.756Z,-3.30
2018-02-19T23:48:20.112Z,-3.30
2018-02-19T23:53:03.463Z,-3.40
2018-02-19T23:57:46.807Z,-3.40
